Green Hill, Arkansas
Current Conditions -  °F | °C
As of 2:53 AM on Saturday 22 Nov 2014 (Local Time) from KLLQ Reporting Station
Overcast Overcast  
Wind Chill: 57°   Ceiling: 6500
Heat Index: 57°   Visibility: 10mi
Dew Point: 48°   Wind: 8mph
Humidity: 72%   Direction: 180°S
Pressure: 30.24"   Gusts: NA
Location:  33.6204°N, 91.9247°W
Report Text: KLLQ 220853Z AUTO 18007KT 10SM OVC065 14/09 A3024 RMK AO2 SLP239 60000 T01390089 58005
Loading
Personal Weather Stations






























Interactive Weather Map New forecast layout! Learn more

10-Day Weather Forecast

Advertisements
Track Severe Weather on mobile